Terminal Aerodrome Forecast
Issued by NWS

Home | Current Version | Previous Version | Text Only | Print | Product List | Glossary On
Versions: 1 2 3 4 5 6 7 8 9 10 11 12 13 14 15 16 17 18 19 20 21 22 23 24 25 26 27 28 29 30 31 32 33 34 35 36
000
FTUS45 KSLC 231402 AAA
TAFOGD
TAF AMD
KOGD 231402Z 2314/2412 14006KT P6SM VCSH BKN035
      TEMPO 2314/2316 P6SM SCT035
     FM231600 30008KT P6SM VCSH SCT050 BKN100
     FM232100 30010KT P6SM SCT100 BKN150
     FM240300 17004KT P6SM SCT150=

USA.gov is the U.S. government's official web portal to all federal, state and local government web resources and services.